Airfield :
LOGIN :

Register | Disclaimer

   EN    FR    IT 

 










Legend :    VFR   Marginal VFR   IFR   Intensive IFR   Very Intensive IFR
Visi :
Ceiling :
>= 8 km
>= 3000ft
5 to 8 km
1000 to 3000 ft
1500m to 5 km
500 to 1000 ft
800 to 1500m
200 to 500 ft
< 800m
< 200 ft
Symbols :   Thunderstorms  Fog  Heavy snow  Heavy precipitations  Wind > 20 kt
SIGMETs :     Misc.  Thunderstorms  Icing  Turbulence  Mountain Waves  Volcanic Ashes







- Airport Elevation : 375 ft
- IATA code : MST


EHBK - Maastricht Aachen

CURRENT METAR :
  • 211655Z AUTO 24017G28KT 190V280 9999 NCD 15/05 Q1013 NOSIG

EXPIRED METARs :
  • 211625Z AUTO 25015KT 210V290 9999 NSC 16/03 Q1012 NOSIG
  • 211555Z AUTO 25012KT 210V310 9999 NSC 16/04 Q1012 NOSIG
  • 211525Z AUTO 25015KT 200V300 9999 NSC 16/04 Q1012 NOSIG
  • 211455Z AUTO 24014KT 200V290 9999 SCT045 BKN049 16/06 Q1012 NOSIG
  • 211425Z AUTO 25011KT 190V300 9999 SCT046 17/06 Q1012 NOSIG

TAF TAF EHBK
Valid from the 21 at 12:00 until the 22 at 18:00 UTC


211100Z 2112/2218 26015G25KT 9999 SCT030
BECMG 2116/2119 23015G25KT
PROB30
TEMPO 2121/2206 6000 SHRA SCT025CB
BECMG 2200/2203 23012KT
No reported NOTAMs for that airfield.
1 SIGMET reported for the Amsterdam FIR (EHAA) :
 
Embedded thunderstorms
EHAA SIGMET 3 VALID 211630/211730 EHDB
EHAA AMSTERDAM FIR EMBD TS OBS APRX 15KM WID LINE BTN N5119 E00419 - N5214 E00450 - N5318 E00704 TOP FL300 MOV E 35KT WKN=



MET'MAP, your aeronautical weather chart ! - Copyright ORBIFLY December 2007 - Disclaimer

ORBIFLY MET'MAP TEAM :

Programming & Development : Alexandra Zaïnal
Concept & Development : Baudouin d'Aumeries
Co-Development & Prog : Marc-Olivier Méhu
Technical & hardware support : Manuel Goepfert

Contact : metmap@orbifly.com




SOURCES & CREDITS :

   NOAA